sensor_id;sensor_type;location;lat;lon;timestamp;temperature;humidity
67799;SHT30;54596;43.216;27.904;2023-06-14T00:01:39;18.68;80.89
67799;SHT30;54596;43.216;27.904;2023-06-14T00:04:05;18.71;80.84
67799;SHT30;54596;43.216;27.904;2023-06-14T00:06:31;18.74;80.72
67799;SHT30;54596;43.216;27.904;2023-06-14T00:08:56;18.74;80.77
67799;SHT30;54596;43.216;27.904;2023-06-14T00:11:22;18.74;80.63
67799;SHT30;54596;43.216;27.904;2023-06-14T00:13:47;18.75;80.56
67799;SHT30;54596;43.216;27.904;2023-06-14T00:16:12;18.75;80.60
67799;SHT30;54596;43.216;27.904;2023-06-14T00:18:38;18.77;80.40
67799;SHT30;54596;43.216;27.904;2023-06-14T00:21:04;18.75;80.54
67799;SHT30;54596;43.216;27.904;2023-06-14T00:23:30;18.69;80.52
67799;SHT30;54596;43.216;27.904;2023-06-14T00:25:56;18.72;80.52
67799;SHT30;54596;43.216;27.904;2023-06-14T00:28:21;18.71;80.58
67799;SHT30;54596;43.216;27.904;2023-06-14T00:30:47;18.68;80.68
67799;SHT30;54596;43.216;27.904;2023-06-14T00:33:13;18.67;80.69
67799;SHT30;54596;43.216;27.904;2023-06-14T00:35:38;18.63;80.88
67799;SHT30;54596;43.216;27.904;2023-06-14T00:38:04;18.68;80.96
67799;SHT30;54596;43.216;27.904;2023-06-14T00:40:29;18.68;80.90
67799;SHT30;54596;43.216;27.904;2023-06-14T00:42:55;18.67;80.73
67799;SHT30;54596;43.216;27.904;2023-06-14T00:45:20;18.63;80.89
67799;SHT30;54596;43.216;27.904;2023-06-14T00:47:46;18.64;80.85
67799;SHT30;54596;43.216;27.904;2023-06-14T00:50:13;18.64;80.94
67799;SHT30;54596;43.216;27.904;2023-06-14T00:52:39;18.67;80.92
67799;SHT30;54596;43.216;27.904;2023-06-14T00:55:05;18.67;80.87
67799;SHT30;54596;43.216;27.904;2023-06-14T00:57:31;18.69;80.90
67799;SHT30;54596;43.216;27.904;2023-06-14T00:59:57;18.71;80.88
67799;SHT30;54596;43.216;27.904;2023-06-14T01:02:23;18.71;80.72
67799;SHT30;54596;43.216;27.904;2023-06-14T01:04:49;18.74;80.70
67799;SHT30;54596;43.216;27.904;2023-06-14T01:13:13;18.57;81.00
67799;SHT30;54596;43.216;27.904;2023-06-14T01:15:43;18.56;81.05
67799;SHT30;54596;43.216;27.904;2023-06-14T01:18:09;18.49;81.26
67799;SHT30;54596;43.216;27.904;2023-06-14T01:20:43;18.46;81.44
67799;SHT30;54596;43.216;27.904;2023-06-14T01:23:11;18.44;81.68
67799;SHT30;54596;43.216;27.904;2023-06-14T01:25:39;18.40;81.70
67799;SHT30;54596;43.216;27.904;2023-06-14T01:28:06;18.36;81.73
67799;SHT30;54596;43.216;27.904;2023-06-14T01:30:37;18.33;82.14
67799;SHT30;54596;43.216;27.904;2023-06-14T01:33:04;18.28;82.32
67799;SHT30;54596;43.216;27.904;2023-06-14T01:35:31;18.26;82.31
67799;SHT30;54596;43.216;27.904;2023-06-14T01:37:57;18.25;82.38
67799;SHT30;54596;43.216;27.904;2023-06-14T01:40:23;18.21;82.50
67799;SHT30;54596;43.216;27.904;2023-06-14T01:42:50;18.19;82.63
67799;SHT30;54596;43.216;27.904;2023-06-14T01:45:18;18.21;82.57
67799;SHT30;54596;43.216;27.904;2023-06-14T01:47:44;18.17;82.57
67799;SHT30;54596;43.216;27.904;2023-06-14T01:50:11;18.17;82.52
67799;SHT30;54596;43.216;27.904;2023-06-14T01:52:39;18.19;82.46
67799;SHT30;54596;43.216;27.904;2023-06-14T01:55:05;18.15;82.72
67799;SHT30;54596;43.216;27.904;2023-06-14T01:57:31;18.13;82.86
67799;SHT30;54596;43.216;27.904;2023-06-14T01:59:57;18.12;82.85
67799;SHT30;54596;43.216;27.904;2023-06-14T02:02:22;18.12;82.84
67799;SHT30;54596;43.216;27.904;2023-06-14T02:04:48;18.15;82.85
67799;SHT30;54596;43.216;27.904;2023-06-14T02:07:14;18.21;82.87
67799;SHT30;54596;43.216;27.904;2023-06-14T02:09:40;18.13;83.00
67799;SHT30;54596;43.216;27.904;2023-06-14T02:12:06;18.09;83.24
67799;SHT30;54596;43.216;27.904;2023-06-14T02:14:32;18.02;83.50
67799;SHT30;54596;43.216;27.904;2023-06-14T02:16:58;17.98;83.47
67799;SHT30;54596;43.216;27.904;2023-06-14T02:19:26;17.98;83.28
67799;SHT30;54596;43.216;27.904;2023-06-14T02:21:52;17.92;83.23
67799;SHT30;54596;43.216;27.904;2023-06-14T02:24:17;17.92;83.15
67799;SHT30;54596;43.216;27.904;2023-06-14T02:26:43;17.92;83.19
67799;SHT30;54596;43.216;27.904;2023-06-14T02:29:08;17.92;83.21
67799;SHT30;54596;43.216;27.904;2023-06-14T02:31:36;17.94;83.26
67799;SHT30;54596;43.216;27.904;2023-06-14T02:34:02;17.89;83.25
67799;SHT30;54596;43.216;27.904;2023-06-14T02:36:27;17.88;83.27
67799;SHT30;54596;43.216;27.904;2023-06-14T02:38:55;17.85;83.22
67799;SHT30;54596;43.216;27.904;2023-06-14T02:41:23;17.91;83.34
67799;SHT30;54596;43.216;27.904;2023-06-14T02:43:48;17.94;83.40
67799;SHT30;54596;43.216;27.904;2023-06-14T02:46:14;17.97;83.39
67799;SHT30;54596;43.216;27.904;2023-06-14T02:48:40;17.98;83.73
67799;SHT30;54596;43.216;27.904;2023-06-14T02:51:05;17.89;84.07
67799;SHT30;54596;43.216;27.904;2023-06-14T02:53:31;17.84;84.19
67799;SHT30;54596;43.216;27.904;2023-06-14T02:55:56;17.80;84.33
67799;SHT30;54596;43.216;27.904;2023-06-14T02:58:22;17.80;84.43
67799;SHT30;54596;43.216;27.904;2023-06-14T03:00:50;17.74;84.11
67799;SHT30;54596;43.216;27.904;2023-06-14T03:03:17;17.78;84.04
67799;SHT30;54596;43.216;27.904;2023-06-14T03:05:44;17.80;83.86
67799;SHT30;54596;43.216;27.904;2023-06-14T03:08:17;17.78;83.83
67799;SHT30;54596;43.216;27.904;2023-06-14T03:10:47;17.82;83.56
67799;SHT30;54596;43.216;27.904;2023-06-14T03:13:16;17.81;83.42
67799;SHT30;54596;43.216;27.904;2023-06-14T03:15:42;17.82;83.22
67799;SHT30;54596;43.216;27.904;2023-06-14T03:18:08;17.82;83.32
67799;SHT30;54596;43.216;27.904;2023-06-14T03:20:35;17.85;83.62
67799;SHT30;54596;43.216;27.904;2023-06-14T03:23:01;17.84;83.54
67799;SHT30;54596;43.216;27.904;2023-06-14T03:25:28;17.85;83.10
67799;SHT30;54596;43.216;27.904;2023-06-14T03:27:58;17.89;83.45
67799;SHT30;54596;43.216;27.904;2023-06-14T03:30:24;17.95;83.14
67799;SHT30;54596;43.216;27.904;2023-06-14T03:32:49;17.99;83.01
67799;SHT30;54596;43.216;27.904;2023-06-14T03:35:19;18.04;82.92
67799;SHT30;54596;43.216;27.904;2023-06-14T03:37:45;18.09;82.77
67799;SHT30;54596;43.216;27.904;2023-06-14T03:40:12;18.13;82.75
67799;SHT30;54596;43.216;27.904;2023-06-14T03:42:38;18.25;82.26
67799;SHT30;54596;43.216;27.904;2023-06-14T03:45:04;18.25;82.42
67799;SHT30;54596;43.216;27.904;2023-06-14T03:47:30;18.39;82.16
67799;SHT30;54596;43.216;27.904;2023-06-14T03:49:56;18.34;82.19
67799;SHT30;54596;43.216;27.904;2023-06-14T03:52:21;18.41;82.11
67799;SHT30;54596;43.216;27.904;2023-06-14T03:54:48;18.46;81.98
67799;SHT30;54596;43.216;27.904;2023-06-14T03:57:15;18.49;81.80
67799;SHT30;54596;43.216;27.904;2023-06-14T03:59:40;18.51;81.89
67799;SHT30;54596;43.216;27.904;2023-06-14T04:02:06;18.57;81.89
67799;SHT30;54596;43.216;27.904;2023-06-14T04:04:32;18.61;82.10
67799;SHT30;54596;43.216;27.904;2023-06-14T04:06:58;18.61;82.04
67799;SHT30;54596;43.216;27.904;2023-06-14T04:09:25;18.56;82.28
67799;SHT30;54596;43.216;27.904;2023-06-14T04:11:55;18.58;82.36
67799;SHT30;54596;43.216;27.904;2023-06-14T04:14:21;18.56;82.45
67799;SHT30;54596;43.216;27.904;2023-06-14T04:16:47;18.60;82.62
67799;SHT30;54596;43.216;27.904;2023-06-14T04:19:14;18.58;82.72
67799;SHT30;54596;43.216;27.904;2023-06-14T04:21:39;18.63;82.58
67799;SHT30;54596;43.216;27.904;2023-06-14T04:24:05;18.67;82.55
67799;SHT30;54596;43.216;27.904;2023-06-14T04:26:32;18.71;82.44
67799;SHT30;54596;43.216;27.904;2023-06-14T04:28:59;18.81;82.33
67799;SHT30;54596;43.216;27.904;2023-06-14T04:31:30;18.79;82.15
67799;SHT30;54596;43.216;27.904;2023-06-14T04:33:59;18.88;82.09
67799;SHT30;54596;43.216;27.904;2023-06-14T04:36:24;18.96;82.15
67799;SHT30;54596;43.216;27.904;2023-06-14T04:38:51;19.09;81.91
67799;SHT30;54596;43.216;27.904;2023-06-14T04:41:21;19.16;81.33
67799;SHT30;54596;43.216;27.904;2023-06-14T04:43:48;19.23;81.04
67799;SHT30;54596;43.216;27.904;2023-06-14T04:46:14;19.34;81.18
67799;SHT30;54596;43.216;27.904;2023-06-14T04:48:41;19.47;81.41
67799;SHT30;54596;43.216;27.904;2023-06-14T04:51:11;19.57;80.96
67799;SHT30;54596;43.216;27.904;2023-06-14T04:53:36;19.64;80.46
67799;SHT30;54596;43.216;27.904;2023-06-14T04:56:02;19.71;80.32
67799;SHT30;54596;43.216;27.904;2023-06-14T04:58:29;19.78;79.83
67799;SHT30;54596;43.216;27.904;2023-06-14T05:00:55;19.92;79.86
67799;SHT30;54596;43.216;27.904;2023-06-14T05:03:22;20.05;79.77
67799;SHT30;54596;43.216;27.904;2023-06-14T05:05:49;20.17;79.75
67799;SHT30;54596;43.216;27.904;2023-06-14T05:08:16;20.32;79.52
67799;SHT30;54596;43.216;27.904;2023-06-14T05:10:41;20.41;79.01
67799;SHT30;54596;43.216;27.904;2023-06-14T05:13:07;20.58;78.66
67799;SHT30;54596;43.216;27.904;2023-06-14T05:15:33;20.86;77.91
67799;SHT30;54596;43.216;27.904;2023-06-14T05:17:59;21.07;77.36
67799;SHT30;54596;43.216;27.904;2023-06-14T05:20:25;21.27;76.69
67799;SHT30;54596;43.216;27.904;2023-06-14T05:22:54;21.51;76.06
67799;SHT30;54596;43.216;27.904;2023-06-14T05:25:22;21.78;75.40
67799;SHT30;54596;43.216;27.904;2023-06-14T05:27:48;22.34;73.76
67799;SHT30;54596;43.216;27.904;2023-06-14T05:30:14;22.94;72.08
67799;SHT30;54596;43.216;27.904;2023-06-14T05:32:40;24.01;69.55
67799;SHT30;54596;43.216;27.904;2023-06-14T05:35:06;25.33;67.23
67799;SHT30;54596;43.216;27.904;2023-06-14T05:37:32;26.76;64.84
67799;SHT30;54596;43.216;27.904;2023-06-14T05:39:57;27.85;61.59
67799;SHT30;54596;43.216;27.904;2023-06-14T05:42:23;28.69;59.51
67799;SHT30;54596;43.216;27.904;2023-06-14T05:44:48;29.33;57.66
67799;SHT30;54596;43.216;27.904;2023-06-14T05:47:14;29.61;57.31
67799;SHT30;54596;43.216;27.904;2023-06-14T05:49:39;30.31;55.82
67799;SHT30;54596;43.216;27.904;2023-06-14T05:52:05;30.85;54.24
67799;SHT30;54596;43.216;27.904;2023-06-14T05:54:31;31.10;53.98
67799;SHT30;54596;43.216;27.904;2023-06-14T05:56:56;31.72;53.19
67799;SHT30;54596;43.216;27.904;2023-06-14T05:59:27;32.06;52.22
67799;SHT30;54596;43.216;27.904;2023-06-14T06:01:52;32.13;52.37
67799;SHT30;54596;43.216;27.904;2023-06-14T06:04:17;32.38;51.76
67799;SHT30;54596;43.216;27.904;2023-06-14T06:06:43;32.20;52.00
67799;SHT30;54596;43.216;27.904;2023-06-14T06:09:08;32.31;51.39
67799;SHT30;54596;43.216;27.904;2023-06-14T06:11:34;32.06;51.14
67799;SHT30;54596;43.216;27.904;2023-06-14T06:13:59;32.35;51.80
67799;SHT30;54596;43.216;27.904;2023-06-14T06:16:26;32.35;50.49
67799;SHT30;54596;43.216;27.904;2023-06-14T06:18:51;32.38;50.62
67799;SHT30;54596;43.216;27.904;2023-06-14T06:21:17;32.19;50.90
67799;SHT30;54596;43.216;27.904;2023-06-14T06:23:43;32.38;50.54
67799;SHT30;54596;43.216;27.904;2023-06-14T06:26:08;32.93;49.10
67799;SHT30;54596;43.216;27.904;2023-06-14T06:28:33;32.67;48.88
67799;SHT30;54596;43.216;27.904;2023-06-14T06:30:59;33.38;47.84
67799;SHT30;54596;43.216;27.904;2023-06-14T06:33:25;32.13;49.72
67799;SHT30;54596;43.216;27.904;2023-06-14T06:35:50;31.39;52.32
67799;SHT30;54596;43.216;27.904;2023-06-14T06:38:16;31.19;52.59
67799;SHT30;54596;43.216;27.904;2023-06-14T06:40:43;31.31;52.82
67799;SHT30;54596;43.216;27.904;2023-06-14T06:43:09;30.48;53.61
67799;SHT30;54596;43.216;27.904;2023-06-14T06:45:34;29.51;54.87
67799;SHT30;54596;43.216;27.904;2023-06-14T06:48:00;29.24;55.11
67799;SHT30;54596;43.216;27.904;2023-06-14T06:50:25;30.69;52.70
67799;SHT30;54596;43.216;27.904;2023-06-14T06:52:51;31.94;50.47
67799;SHT30;54596;43.216;27.904;2023-06-14T06:55:16;32.87;49.07
67799;SHT30;54596;43.216;27.904;2023-06-14T06:57:43;31.58;48.95
67799;SHT30;54596;43.216;27.904;2023-06-14T07:00:09;32.75;47.74
67799;SHT30;54596;43.216;27.904;2023-06-14T07:02:36;34.17;45.62
67799;SHT30;54596;43.216;27.904;2023-06-14T07:05:01;33.47;45.95
67799;SHT30;54596;43.216;27.904;2023-06-14T07:07:27;32.85;46.60
67799;SHT30;54596;43.216;27.904;2023-06-14T07:09:52;32.54;46.99
67799;SHT30;54596;43.216;27.904;2023-06-14T07:12:18;31.33;49.10
67799;SHT30;54596;43.216;27.904;2023-06-14T07:14:44;30.33;51.15
67799;SHT30;54596;43.216;27.904;2023-06-14T07:17:10;29.51;52.52
67799;SHT30;54596;43.216;27.904;2023-06-14T07:19:35;29.07;53.09
67799;SHT30;54596;43.216;27.904;2023-06-14T07:22:01;30.42;50.64
67799;SHT30;54596;43.216;27.904;2023-06-14T07:24:27;31.23;49.67
67799;SHT30;54596;43.216;27.904;2023-06-14T07:26:53;30.85;49.48
67799;SHT30;54596;43.216;27.904;2023-06-14T07:29:20;29.92;50.54
67799;SHT30;54596;43.216;27.904;2023-06-14T07:31:47;30.75;49.85
67799;SHT30;54596;43.216;27.904;2023-06-14T07:34:13;32.40;46.76
67799;SHT30;54596;43.216;27.904;2023-06-14T07:36:38;34.43;44.16
67799;SHT30;54596;43.216;27.904;2023-06-14T07:39:04;35.29;42.46
67799;SHT30;54596;43.216;27.904;2023-06-14T07:41:32;36.02;41.26
67799;SHT30;54596;43.216;27.904;2023-06-14T07:43:57;37.11;39.88
67799;SHT30;54596;43.216;27.904;2023-06-14T07:46:23;35.21;41.91
67799;SHT30;54596;43.216;27.904;2023-06-14T07:48:49;34.93;42.92
67799;SHT30;54596;43.216;27.904;2023-06-14T07:51:14;36.07;41.68
67799;SHT30;54596;43.216;27.904;2023-06-14T07:53:40;35.88;41.41
67799;SHT30;54596;43.216;27.904;2023-06-14T07:56:06;34.26;42.51
67799;SHT30;54596;43.216;27.904;2023-06-14T07:58:31;32.23;45.97
67799;SHT30;54596;43.216;27.904;2023-06-14T08:00:57;30.69;48.46
67799;SHT30;54596;43.216;27.904;2023-06-14T08:03:23;32.16;46.51
67799;SHT30;54596;43.216;27.904;2023-06-14T08:05:49;33.71;44.39
67799;SHT30;54596;43.216;27.904;2023-06-14T08:08:14;34.88;42.75
67799;SHT30;54596;43.216;27.904;2023-06-14T08:10:40;33.34;44.90
67799;SHT30;54596;43.216;27.904;2023-06-14T08:13:06;33.48;44.92
67799;SHT30;54596;43.216;27.904;2023-06-14T08:15:31;31.42;47.99
67799;SHT30;54596;43.216;27.904;2023-06-14T08:17:57;30.69;49.44
67799;SHT30;54596;43.216;27.904;2023-06-14T08:20:25;30.99;49.97
67799;SHT30;54596;43.216;27.904;2023-06-14T08:22:54;31.86;48.17
67799;SHT30;54596;43.216;27.904;2023-06-14T08:25:21;32.16;47.81
67799;SHT30;54596;43.216;27.904;2023-06-14T08:27:47;31.10;49.87
67799;SHT30;54596;43.216;27.904;2023-06-14T08:30:13;30.93;49.49
67799;SHT30;54596;43.216;27.904;2023-06-14T08:32:39;30.23;50.37
67799;SHT30;54596;43.216;27.904;2023-06-14T08:35:04;30.49;50.47
67799;SHT30;54596;43.216;27.904;2023-06-14T08:37:31;29.82;52.08
67799;SHT30;54596;43.216;27.904;2023-06-14T08:39:56;29.73;52.47
67799;SHT30;54596;43.216;27.904;2023-06-14T08:42:24;29.55;52.54
67799;SHT30;54596;43.216;27.904;2023-06-14T08:44:49;29.33;52.75
67799;SHT30;54596;43.216;27.904;2023-06-14T08:47:15;28.95;53.39
67799;SHT30;54596;43.216;27.904;2023-06-14T08:49:47;28.88;53.46
67799;SHT30;54596;43.216;27.904;2023-06-14T08:52:15;29.00;53.71
67799;SHT30;54596;43.216;27.904;2023-06-14T08:54:44;28.49;54.48
67799;SHT30;54596;43.216;27.904;2023-06-14T08:57:14;28.79;53.56
67799;SHT30;54596;43.216;27.904;2023-06-14T08:59:47;28.48;54.36
67799;SHT30;54596;43.216;27.904;2023-06-14T09:02:18;28.38;54.73
67799;SHT30;54596;43.216;27.904;2023-06-14T09:04:47;28.12;54.94
67799;SHT30;54596;43.216;27.904;2023-06-14T09:07:14;27.90;55.83
67799;SHT30;54596;43.216;27.904;2023-06-14T09:09:40;28.03;55.89
67799;SHT30;54596;43.216;27.904;2023-06-14T09:12:15;27.99;55.36
67799;SHT30;54596;43.216;27.904;2023-06-14T09:14:41;27.92;55.77
67799;SHT30;54596;43.216;27.904;2023-06-14T09:17:07;27.89;55.55
67799;SHT30;54596;43.216;27.904;2023-06-14T09:19:34;27.58;58.31
67799;SHT30;54596;43.216;27.904;2023-06-14T09:22:02;27.07;59.71
67799;SHT30;54596;43.216;27.904;2023-06-14T09:24:28;26.52;60.94
67799;SHT30;54596;43.216;27.904;2023-06-14T09:26:53;26.07;61.81
67799;SHT30;54596;43.216;27.904;2023-06-14T09:29:19;26.13;62.12
67799;SHT30;54596;43.216;27.904;2023-06-14T09:31:47;26.16;62.30
67799;SHT30;54596;43.216;27.904;2023-06-14T09:34:13;26.26;62.44
67799;SHT30;54596;43.216;27.904;2023-06-14T09:36:41;26.20;62.71
67799;SHT30;54596;43.216;27.904;2023-06-14T09:39:08;26.09;62.84
67799;SHT30;54596;43.216;27.904;2023-06-14T09:41:34;26.19;63.34
67799;SHT30;54596;43.216;27.904;2023-06-14T09:44:01;26.27;62.10
67799;SHT30;54596;43.216;27.904;2023-06-14T09:46:28;26.37;62.31
67799;SHT30;54596;43.216;27.904;2023-06-14T09:48:55;26.38;62.26
67799;SHT30;54596;43.216;27.904;2023-06-14T09:51:22;26.26;62.43
67799;SHT30;54596;43.216;27.904;2023-06-14T09:53:49;26.09;62.91
67799;SHT30;54596;43.216;27.904;2023-06-14T09:56:31;26.10;62.70
67799;SHT30;54596;43.216;27.904;2023-06-14T09:58:57;25.93;62.94
67799;SHT30;54596;43.216;27.904;2023-06-14T10:01:28;26.13;62.40
67799;SHT30;54596;43.216;27.904;2023-06-14T10:04:05;26.04;62.75
67799;SHT30;54596;43.216;27.904;2023-06-14T10:06:31;26.07;61.50
67799;SHT30;54596;43.216;27.904;2023-06-14T10:08:59;26.07;62.94
67799;SHT30;54596;43.216;27.904;2023-06-14T10:11:28;26.07;63.07
67799;SHT30;54596;43.216;27.904;2023-06-14T10:13:55;26.12;62.46
67799;SHT30;54596;43.216;27.904;2023-06-14T10:16:33;26.26;62.05
67799;SHT30;54596;43.216;27.904;2023-06-14T10:19:25;26.10;61.95
67799;SHT30;54596;43.216;27.904;2023-06-14T10:22:12;26.10;62.56
67799;SHT30;54596;43.216;27.904;2023-06-14T10:24:43;26.37;62.60
67799;SHT30;54596;43.216;27.904;2023-06-14T10:27:09;26.47;62.15
67799;SHT30;54596;43.216;27.904;2023-06-14T10:32:18;26.52;61.98
67799;SHT30;54596;43.216;27.904;2023-06-14T10:34:59;26.45;61.19
67799;SHT30;54596;43.216;27.904;2023-06-14T10:37:25;26.47;61.23
67799;SHT30;54596;43.216;27.904;2023-06-14T10:39:51;26.48;61.49
67799;SHT30;54596;43.216;27.904;2023-06-14T10:42:16;26.54;61.96
67799;SHT30;54596;43.216;27.904;2023-06-14T10:44:44;26.26;62.04
67799;SHT30;54596;43.216;27.904;2023-06-14T10:49:53;26.21;62.46
67799;SHT30;54596;43.216;27.904;2023-06-14T10:52:24;26.09;62.82
67799;SHT30;54596;43.216;27.904;2023-06-14T10:55:16;26.19;63.16
67799;SHT30;54596;43.216;27.904;2023-06-14T10:57:45;26.29;62.59
67799;SHT30;54596;43.216;27.904;2023-06-14T11:00:12;26.41;62.35
67799;SHT30;54596;43.216;27.904;2023-06-14T11:05:29;26.27;62.39
67799;SHT30;54596;43.216;27.904;2023-06-14T11:10:51;26.03;63.34
67799;SHT30;54596;43.216;27.904;2023-06-14T11:13:17;26.23;63.34
67799;SHT30;54596;43.216;27.904;2023-06-14T11:15:45;26.17;63.70
67799;SHT30;54596;43.216;27.904;2023-06-14T11:18:13;26.14;63.20
67799;SHT30;54596;43.216;27.904;2023-06-14T11:20:39;26.07;63.52
67799;SHT30;54596;43.216;27.904;2023-06-14T11:23:05;26.14;64.49
67799;SHT30;54596;43.216;27.904;2023-06-14T11:25:31;26.20;64.36
67799;SHT30;54596;43.216;27.904;2023-06-14T11:27:57;26.13;64.30
67799;SHT30;54596;43.216;27.904;2023-06-14T11:30:24;26.03;65.16
67799;SHT30;54596;43.216;27.904;2023-06-14T11:32:52;25.95;65.51
67799;SHT30;54596;43.216;27.904;2023-06-14T11:35:19;25.99;65.72
67799;SHT30;54596;43.216;27.904;2023-06-14T11:37:49;25.78;66.19
67799;SHT30;54596;43.216;27.904;2023-06-14T11:40:15;25.69;66.40
67799;SHT30;54596;43.216;27.904;2023-06-14T11:42:41;25.67;66.96
67799;SHT30;54596;43.216;27.904;2023-06-14T11:45:10;25.57;66.35
67799;SHT30;54596;43.216;27.904;2023-06-14T11:47:39;25.71;67.02
67799;SHT30;54596;43.216;27.904;2023-06-14T11:50:07;25.81;67.01
67799;SHT30;54596;43.216;27.904;2023-06-14T11:52:37;25.61;67.78
67799;SHT30;54596;43.216;27.904;2023-06-14T11:55:03;25.48;67.78
67799;SHT30;54596;43.216;27.904;2023-06-14T11:57:34;25.44;68.26
67799;SHT30;54596;43.216;27.904;2023-06-14T12:00:03;25.50;68.07
67799;SHT30;54596;43.216;27.904;2023-06-14T12:02:40;25.28;68.71
67799;SHT30;54596;43.216;27.904;2023-06-14T12:05:07;25.24;69.46
67799;SHT30;54596;43.216;27.904;2023-06-14T12:07:36;25.19;69.48
67799;SHT30;54596;43.216;27.904;2023-06-14T12:12:36;25.30;68.94
67799;SHT30;54596;43.216;27.904;2023-06-14T12:15:08;25.34;68.63
67799;SHT30;54596;43.216;27.904;2023-06-14T12:17:37;25.37;68.18
67799;SHT30;54596;43.216;27.904;2023-06-14T12:20:10;25.34;68.84
67799;SHT30;54596;43.216;27.904;2023-06-14T12:22:37;25.20;68.78
67799;SHT30;54596;43.216;27.904;2023-06-14T12:25:04;25.13;70.53
67799;SHT30;54596;43.216;27.904;2023-06-14T12:27:30;25.06;74.54
67799;SHT30;54596;43.216;27.904;2023-06-14T12:30:03;24.69;76.92
67799;SHT30;54596;43.216;27.904;2023-06-14T12:32:29;24.72;77.04
67799;SHT30;54596;43.216;27.904;2023-06-14T12:34:55;24.61;77.10
67799;SHT30;54596;43.216;27.904;2023-06-14T12:37:20;24.34;78.15
67799;SHT30;54596;43.216;27.904;2023-06-14T12:39:46;24.26;77.95
67799;SHT30;54596;43.216;27.904;2023-06-14T12:42:11;24.31;77.87
67799;SHT30;54596;43.216;27.904;2023-06-14T12:44:39;24.27;78.11
67799;SHT30;54596;43.216;27.904;2023-06-14T12:47:06;24.24;77.96
67799;SHT30;54596;43.216;27.904;2023-06-14T12:49:32;24.16;78.20
67799;SHT30;54596;43.216;27.904;2023-06-14T12:51:58;24.17;78.38
67799;SHT30;54596;43.216;27.904;2023-06-14T12:54:23;24.02;78.74
67799;SHT30;54596;43.216;27.904;2023-06-14T12:56:53;23.95;78.95
67799;SHT30;54596;43.216;27.904;2023-06-14T12:59:20;23.85;79.14
67799;SHT30;54596;43.216;27.904;2023-06-14T13:01:45;23.93;79.16
67799;SHT30;54596;43.216;27.904;2023-06-14T13:04:12;23.92;79.05
67799;SHT30;54596;43.216;27.904;2023-06-14T13:06:38;23.88;78.90
67799;SHT30;54596;43.216;27.904;2023-06-14T13:09:05;23.71;79.45
67799;SHT30;54596;43.216;27.904;2023-06-14T13:11:30;23.57;79.75
67799;SHT30;54596;43.216;27.904;2023-06-14T13:13:56;23.40;80.14
67799;SHT30;54596;43.216;27.904;2023-06-14T13:16:21;23.28;81.17
67799;SHT30;54596;43.216;27.904;2023-06-14T13:18:47;23.16;81.66
67799;SHT30;54596;43.216;27.904;2023-06-14T13:21:12;23.22;81.77
67799;SHT30;54596;43.216;27.904;2023-06-14T13:23:38;23.22;81.44
67799;SHT30;54596;43.216;27.904;2023-06-14T13:26:03;23.17;79.79
67799;SHT30;54596;43.216;27.904;2023-06-14T13:28:29;23.20;79.03
67799;SHT30;54596;43.216;27.904;2023-06-14T13:30:56;23.28;79.91
67799;SHT30;54596;43.216;27.904;2023-06-14T13:33:22;23.33;80.19
67799;SHT30;54596;43.216;27.904;2023-06-14T13:35:49;23.15;80.26
67799;SHT30;54596;43.216;27.904;2023-06-14T13:38:14;23.15;79.21
67799;SHT30;54596;43.216;27.904;2023-06-14T13:40:40;23.30;78.30
67799;SHT30;54596;43.216;27.904;2023-06-14T13:43:06;23.24;79.63
67799;SHT30;54596;43.216;27.904;2023-06-14T13:45:32;23.41;79.47
67799;SHT30;54596;43.216;27.904;2023-06-14T13:47:57;23.53;78.05
67799;SHT30;54596;43.216;27.904;2023-06-14T13:50:23;23.59;78.70
67799;SHT30;54596;43.216;27.904;2023-06-14T13:52:48;23.61;78.31
67799;SHT30;54596;43.216;27.904;2023-06-14T13:55:14;23.51;79.79
67799;SHT30;54596;43.216;27.904;2023-06-14T13:57:39;23.39;80.55
67799;SHT30;54596;43.216;27.904;2023-06-14T14:00:05;23.43;79.59
67799;SHT30;54596;43.216;27.904;2023-06-14T14:02:31;23.46;80.12
67799;SHT30;54596;43.216;27.904;2023-06-14T14:04:57;23.39;80.49
67799;SHT30;54596;43.216;27.904;2023-06-14T14:07:22;23.28;79.51
67799;SHT30;54596;43.216;27.904;2023-06-14T14:09:49;23.20;79.89
67799;SHT30;54596;43.216;27.904;2023-06-14T14:12:14;23.16;79.15
67799;SHT30;54596;43.216;27.904;2023-06-14T14:14:40;22.99;79.95
67799;SHT30;54596;43.216;27.904;2023-06-14T14:17:06;22.85;80.66
67799;SHT30;54596;43.216;27.904;2023-06-14T14:19:32;22.84;80.60
67799;SHT30;54596;43.216;27.904;2023-06-14T14:21:57;22.79;80.28
67799;SHT30;54596;43.216;27.904;2023-06-14T14:24:23;22.78;80.82
67799;SHT30;54596;43.216;27.904;2023-06-14T14:26:48;22.82;80.33
67799;SHT30;54596;43.216;27.904;2023-06-14T14:29:16;22.92;79.97
67799;SHT30;54596;43.216;27.904;2023-06-14T14:31:42;22.98;80.20
67799;SHT30;54596;43.216;27.904;2023-06-14T14:34:08;23.06;81.34
67799;SHT30;54596;43.216;27.904;2023-06-14T14:36:33;22.99;82.25
67799;SHT30;54596;43.216;27.904;2023-06-14T14:39:01;22.88;82.50
67799;SHT30;54596;43.216;27.904;2023-06-14T14:41:27;22.91;82.63
67799;SHT30;54596;43.216;27.904;2023-06-14T14:43:52;22.75;83.21
67799;SHT30;54596;43.216;27.904;2023-06-14T14:46:18;22.87;83.19
67799;SHT30;54596;43.216;27.904;2023-06-14T14:48:43;22.75;83.60
67799;SHT30;54596;43.216;27.904;2023-06-14T14:51:09;22.57;83.80
67799;SHT30;54596;43.216;27.904;2023-06-14T14:53:35;22.58;83.73
67799;SHT30;54596;43.216;27.904;2023-06-14T14:56:00;22.57;83.15
67799;SHT30;54596;43.216;27.904;2023-06-14T14:58:26;22.64;83.36
67799;SHT30;54596;43.216;27.904;2023-06-14T15:00:52;22.72;83.65
67799;SHT30;54596;43.216;27.904;2023-06-14T15:03:17;22.75;83.65
67799;SHT30;54596;43.216;27.904;2023-06-14T15:05:43;22.69;83.79
67799;SHT30;54596;43.216;27.904;2023-06-14T15:08:08;22.81;83.40
67799;SHT30;54596;43.216;27.904;2023-06-14T15:10:40;22.64;83.51
67799;SHT30;54596;43.216;27.904;2023-06-14T15:13:09;22.64;83.76
67799;SHT30;54596;43.216;27.904;2023-06-14T15:15:35;22.65;83.74
67799;SHT30;54596;43.216;27.904;2023-06-14T15:18:01;22.65;83.65
67799;SHT30;54596;43.216;27.904;2023-06-14T15:20:26;22.58;84.10
67799;SHT30;54596;43.216;27.904;2023-06-14T15:22:53;22.51;84.32
67799;SHT30;54596;43.216;27.904;2023-06-14T15:25:18;22.58;84.33
67799;SHT30;54596;43.216;27.904;2023-06-14T15:27:46;22.50;84.27
67799;SHT30;54596;43.216;27.904;2023-06-14T15:30:12;22.40;84.51
67799;SHT30;54596;43.216;27.904;2023-06-14T15:32:38;22.33;84.61